sensor_id;sensor_type;location;lat;lon;timestamp;temperature;humidity
9907;DHT22;4992;51.628;6.664;2023-02-04T00:01:37;7.40;99.90
9907;DHT22;4992;51.628;6.664;2023-02-04T00:04:03;7.40;99.90
9907;DHT22;4992;51.628;6.664;2023-02-04T00:06:28;7.40;99.90
9907;DHT22;4992;51.628;6.664;2023-02-04T00:08:54;7.40;99.90
9907;DHT22;4992;51.628;6.664;2023-02-04T00:11:19;7.40;99.90
9907;DHT22;4992;51.628;6.664;2023-02-04T00:13:45;7.40;99.90
9907;DHT22;4992;51.628;6.664;2023-02-04T00:16:10;7.40;99.90
9907;DHT22;4992;51.628;6.664;2023-02-04T00:18:36;7.40;99.90
9907;DHT22;4992;51.628;6.664;2023-02-04T00:21:01;7.40;99.90
9907;DHT22;4992;51.628;6.664;2023-02-04T00:23:27;7.30;99.90
9907;DHT22;4992;51.628;6.664;2023-02-04T00:25:52;7.30;99.90
9907;DHT22;4992;51.628;6.664;2023-02-04T00:28:18;7.30;99.90
9907;DHT22;4992;51.628;6.664;2023-02-04T00:30:44;7.30;99.90
9907;DHT22;4992;51.628;6.664;2023-02-04T00:33:09;7.30;99.90
9907;DHT22;4992;51.628;6.664;2023-02-04T00:35:35;7.30;99.90
9907;DHT22;4992;51.628;6.664;2023-02-04T00:38:02;7.30;99.90
9907;DHT22;4992;51.628;6.664;2023-02-04T00:40:28;7.30;99.90
9907;DHT22;4992;51.628;6.664;2023-02-04T00:42:53;7.30;99.90
9907;DHT22;4992;51.628;6.664;2023-02-04T00:45:19;7.20;99.90
9907;DHT22;4992;51.628;6.664;2023-02-04T00:47:44;7.30;99.90
9907;DHT22;4992;51.628;6.664;2023-02-04T00:50:10;7.30;99.90
9907;DHT22;4992;51.628;6.664;2023-02-04T00:52:35;7.30;99.90
9907;DHT22;4992;51.628;6.664;2023-02-04T00:55:01;7.30;99.90
9907;DHT22;4992;51.628;6.664;2023-02-04T00:57:27;7.30;99.90
9907;DHT22;4992;51.628;6.664;2023-02-04T00:59:52;7.30;99.90
9907;DHT22;4992;51.628;6.664;2023-02-04T01:02:18;7.30;99.90
9907;DHT22;4992;51.628;6.664;2023-02-04T01:04:43;7.30;99.90
9907;DHT22;4992;51.628;6.664;2023-02-04T01:07:09;7.30;99.90
9907;DHT22;4992;51.628;6.664;2023-02-04T01:09:34;7.30;99.90
9907;DHT22;4992;51.628;6.664;2023-02-04T01:12:00;7.30;99.90
9907;DHT22;4992;51.628;6.664;2023-02-04T01:14:25;7.30;99.90
9907;DHT22;4992;51.628;6.664;2023-02-04T01:16:51;7.30;99.90
9907;DHT22;4992;51.628;6.664;2023-02-04T01:19:17;7.30;99.90
9907;DHT22;4992;51.628;6.664;2023-02-04T01:21:43;7.30;99.90
9907;DHT22;4992;51.628;6.664;2023-02-04T01:24:08;7.30;99.90
9907;DHT22;4992;51.628;6.664;2023-02-04T01:26:34;7.30;99.90
9907;DHT22;4992;51.628;6.664;2023-02-04T01:28:59;7.20;99.90
9907;DHT22;4992;51.628;6.664;2023-02-04T01:31:25;7.30;99.90
9907;DHT22;4992;51.628;6.664;2023-02-04T01:33:51;7.30;99.90
9907;DHT22;4992;51.628;6.664;2023-02-04T01:36:17;7.30;99.90
9907;DHT22;4992;51.628;6.664;2023-02-04T01:38:46;7.20;99.90
9907;DHT22;4992;51.628;6.664;2023-02-04T01:41:12;7.20;99.90
9907;DHT22;4992;51.628;6.664;2023-02-04T01:43:38;7.20;99.90
9907;DHT22;4992;51.628;6.664;2023-02-04T01:46:03;7.20;99.90
9907;DHT22;4992;51.628;6.664;2023-02-04T01:48:29;7.20;99.90
9907;DHT22;4992;51.628;6.664;2023-02-04T01:51:05;7.20;99.90
9907;DHT22;4992;51.628;6.664;2023-02-04T01:53:31;7.20;99.90
9907;DHT22;4992;51.628;6.664;2023-02-04T01:55:58;7.20;99.90
9907;DHT22;4992;51.628;6.664;2023-02-04T01:58:23;7.20;99.90
9907;DHT22;4992;51.628;6.664;2023-02-04T02:00:49;7.20;99.90
9907;DHT22;4992;51.628;6.664;2023-02-04T02:03:15;7.20;99.90
9907;DHT22;4992;51.628;6.664;2023-02-04T02:08:07;7.20;99.90
9907;DHT22;4992;51.628;6.664;2023-02-04T02:10:33;7.20;99.90
9907;DHT22;4992;51.628;6.664;2023-02-04T02:12:59;7.20;99.90
9907;DHT22;4992;51.628;6.664;2023-02-04T02:15:25;7.20;99.90
9907;DHT22;4992;51.628;6.664;2023-02-04T02:17:52;7.20;99.90
9907;DHT22;4992;51.628;6.664;2023-02-04T02:20:21;7.20;99.90
9907;DHT22;4992;51.628;6.664;2023-02-04T02:25:32;7.20;99.90
9907;DHT22;4992;51.628;6.664;2023-02-04T02:27:58;7.20;99.90
9907;DHT22;4992;51.628;6.664;2023-02-04T02:30:24;7.20;99.90
9907;DHT22;4992;51.628;6.664;2023-02-04T02:32:51;7.20;99.90
9907;DHT22;4992;51.628;6.664;2023-02-04T02:35:17;7.10;99.90
9907;DHT22;4992;51.628;6.664;2023-02-04T02:37:43;7.10;99.90
9907;DHT22;4992;51.628;6.664;2023-02-04T02:40:09;7.10;99.90
9907;DHT22;4992;51.628;6.664;2023-02-04T02:42:35;7.10;99.90
9907;DHT22;4992;51.628;6.664;2023-02-04T02:45:20;7.00;99.90
9907;DHT22;4992;51.628;6.664;2023-02-04T02:47:46;7.00;99.90
9907;DHT22;4992;51.628;6.664;2023-02-04T02:50:15;7.00;99.90
9907;DHT22;4992;51.628;6.664;2023-02-04T02:52:41;7.00;99.90
9907;DHT22;4992;51.628;6.664;2023-02-04T02:55:13;7.00;99.90
9907;DHT22;4992;51.628;6.664;2023-02-04T02:57:39;7.00;99.90
9907;DHT22;4992;51.628;6.664;2023-02-04T03:02:42;7.00;99.90
9907;DHT22;4992;51.628;6.664;2023-02-04T03:05:08;7.00;99.90
9907;DHT22;4992;51.628;6.664;2023-02-04T03:07:35;7.00;99.90
9907;DHT22;4992;51.628;6.664;2023-02-04T03:10:01;6.90;99.90
9907;DHT22;4992;51.628;6.664;2023-02-04T03:12:27;6.90;99.90
9907;DHT22;4992;51.628;6.664;2023-02-04T03:14:53;6.90;99.90
9907;DHT22;4992;51.628;6.664;2023-02-04T03:17:19;6.90;99.90
9907;DHT22;4992;51.628;6.664;2023-02-04T03:19:44;6.80;99.90
9907;DHT22;4992;51.628;6.664;2023-02-04T03:22:10;6.80;99.90
9907;DHT22;4992;51.628;6.664;2023-02-04T03:24:36;6.80;99.90
9907;DHT22;4992;51.628;6.664;2023-02-04T03:27:02;6.80;99.90
9907;DHT22;4992;51.628;6.664;2023-02-04T03:29:28;6.80;99.90
9907;DHT22;4992;51.628;6.664;2023-02-04T03:31:53;6.80;99.90
9907;DHT22;4992;51.628;6.664;2023-02-04T03:34:21;6.80;99.90
9907;DHT22;4992;51.628;6.664;2023-02-04T03:36:46;6.80;99.90
9907;DHT22;4992;51.628;6.664;2023-02-04T03:39:12;6.80;99.90
9907;DHT22;4992;51.628;6.664;2023-02-04T03:41:38;6.70;99.90
9907;DHT22;4992;51.628;6.664;2023-02-04T03:44:03;6.70;99.90
9907;DHT22;4992;51.628;6.664;2023-02-04T03:46:29;6.70;99.90
9907;DHT22;4992;51.628;6.664;2023-02-04T03:48:54;6.70;99.90
9907;DHT22;4992;51.628;6.664;2023-02-04T03:51:20;6.70;99.90
9907;DHT22;4992;51.628;6.664;2023-02-04T03:53:45;6.70;99.90
9907;DHT22;4992;51.628;6.664;2023-02-04T03:56:11;6.70;99.90
9907;DHT22;4992;51.628;6.664;2023-02-04T03:58:36;6.70;99.90
9907;DHT22;4992;51.628;6.664;2023-02-04T04:01:02;6.60;99.90
9907;DHT22;4992;51.628;6.664;2023-02-04T04:03:28;6.60;99.90
9907;DHT22;4992;51.628;6.664;2023-02-04T04:05:53;6.60;99.90
9907;DHT22;4992;51.628;6.664;2023-02-04T04:08:19;6.60;99.90
9907;DHT22;4992;51.628;6.664;2023-02-04T04:10:44;6.60;99.90
9907;DHT22;4992;51.628;6.664;2023-02-04T04:13:10;6.70;99.90
9907;DHT22;4992;51.628;6.664;2023-02-04T04:15:35;6.70;99.90
9907;DHT22;4992;51.628;6.664;2023-02-04T04:18:01;6.60;99.90
9907;DHT22;4992;51.628;6.664;2023-02-04T04:20:29;6.60;99.90
9907;DHT22;4992;51.628;6.664;2023-02-04T04:22:54;6.60;99.90
9907;DHT22;4992;51.628;6.664;2023-02-04T04:25:20;6.60;99.90
9907;DHT22;4992;51.628;6.664;2023-02-04T04:27:45;6.60;99.90
9907;DHT22;4992;51.628;6.664;2023-02-04T04:30:11;6.60;99.90
9907;DHT22;4992;51.628;6.664;2023-02-04T04:32:37;6.60;99.90
9907;DHT22;4992;51.628;6.664;2023-02-04T04:35:03;6.60;99.90
9907;DHT22;4992;51.628;6.664;2023-02-04T04:37:28;6.60;99.90
9907;DHT22;4992;51.628;6.664;2023-02-04T04:39:54;6.50;99.90
9907;DHT22;4992;51.628;6.664;2023-02-04T04:42:19;6.50;99.90
9907;DHT22;4992;51.628;6.664;2023-02-04T04:44:45;6.50;99.90
9907;DHT22;4992;51.628;6.664;2023-02-04T04:47:10;6.50;99.90
9907;DHT22;4992;51.628;6.664;2023-02-04T04:49:36;6.50;99.90
9907;DHT22;4992;51.628;6.664;2023-02-04T04:52:02;6.50;99.90
9907;DHT22;4992;51.628;6.664;2023-02-04T04:54:27;6.50;99.90
9907;DHT22;4992;51.628;6.664;2023-02-04T04:56:53;6.50;99.90
9907;DHT22;4992;51.628;6.664;2023-02-04T04:59:18;6.50;99.90
9907;DHT22;4992;51.628;6.664;2023-02-04T05:01:44;6.50;99.90
9907;DHT22;4992;51.628;6.664;2023-02-04T05:04:09;6.50;99.90
9907;DHT22;4992;51.628;6.664;2023-02-04T05:06:35;6.40;99.90
9907;DHT22;4992;51.628;6.664;2023-02-04T05:09:00;6.40;99.90
9907;DHT22;4992;51.628;6.664;2023-02-04T05:11:26;6.40;99.90
9907;DHT22;4992;51.628;6.664;2023-02-04T05:13:51;6.50;99.90
9907;DHT22;4992;51.628;6.664;2023-02-04T05:16:17;6.50;99.90
9907;DHT22;4992;51.628;6.664;2023-02-04T05:18:43;6.40;99.90
9907;DHT22;4992;51.628;6.664;2023-02-04T05:21:08;6.40;99.90
9907;DHT22;4992;51.628;6.664;2023-02-04T05:23:34;6.40;99.90
9907;DHT22;4992;51.628;6.664;2023-02-04T05:25:59;6.40;99.90
9907;DHT22;4992;51.628;6.664;2023-02-04T05:28:25;6.40;99.90
9907;DHT22;4992;51.628;6.664;2023-02-04T05:30:50;6.40;99.90
9907;DHT22;4992;51.628;6.664;2023-02-04T05:33:16;6.30;99.90
9907;DHT22;4992;51.628;6.664;2023-02-04T05:35:42;6.40;99.90
9907;DHT22;4992;51.628;6.664;2023-02-04T05:38:08;6.40;99.90
9907;DHT22;4992;51.628;6.664;2023-02-04T05:40:33;6.30;99.90
9907;DHT22;4992;51.628;6.664;2023-02-04T05:42:59;6.30;99.90
9907;DHT22;4992;51.628;6.664;2023-02-04T05:45:24;6.30;99.90
9907;DHT22;4992;51.628;6.664;2023-02-04T05:47:51;6.30;99.90
9907;DHT22;4992;51.628;6.664;2023-02-04T05:50:17;6.30;99.90
9907;DHT22;4992;51.628;6.664;2023-02-04T05:52:42;6.30;99.90
9907;DHT22;4992;51.628;6.664;2023-02-04T05:55:10;6.30;99.90
9907;DHT22;4992;51.628;6.664;2023-02-04T05:57:35;6.30;99.90
9907;DHT22;4992;51.628;6.664;2023-02-04T06:00:02;6.30;99.90
9907;DHT22;4992;51.628;6.664;2023-02-04T06:02:28;6.30;99.90
9907;DHT22;4992;51.628;6.664;2023-02-04T06:04:53;6.30;99.90
9907;DHT22;4992;51.628;6.664;2023-02-04T06:07:19;6.30;99.90
9907;DHT22;4992;51.628;6.664;2023-02-04T06:09:44;6.30;99.90
9907;DHT22;4992;51.628;6.664;2023-02-04T06:12:10;6.30;99.90
9907;DHT22;4992;51.628;6.664;2023-02-04T06:14:35;6.30;99.90
9907;DHT22;4992;51.628;6.664;2023-02-04T06:17:01;6.30;99.90
9907;DHT22;4992;51.628;6.664;2023-02-04T06:19:26;6.20;99.90
9907;DHT22;4992;51.628;6.664;2023-02-04T06:21:52;6.20;99.90
9907;DHT22;4992;51.628;6.664;2023-02-04T06:24:17;6.20;99.90
9907;DHT22;4992;51.628;6.664;2023-02-04T06:26:43;6.20;99.90
9907;DHT22;4992;51.628;6.664;2023-02-04T06:29:09;6.20;99.90
9907;DHT22;4992;51.628;6.664;2023-02-04T06:31:34;6.20;99.90
9907;DHT22;4992;51.628;6.664;2023-02-04T06:34:02;6.20;99.90
9907;DHT22;4992;51.628;6.664;2023-02-04T06:36:28;6.20;99.90
9907;DHT22;4992;51.628;6.664;2023-02-04T06:38:53;6.20;99.90
9907;DHT22;4992;51.628;6.664;2023-02-04T06:41:19;6.20;99.90
9907;DHT22;4992;51.628;6.664;2023-02-04T06:43:44;6.20;99.90
9907;DHT22;4992;51.628;6.664;2023-02-04T06:46:10;6.20;99.90
9907;DHT22;4992;51.628;6.664;2023-02-04T06:48:35;6.20;99.90
9907;DHT22;4992;51.628;6.664;2023-02-04T06:51:01;6.20;99.90
9907;DHT22;4992;51.628;6.664;2023-02-04T06:53:26;6.20;99.90
9907;DHT22;4992;51.628;6.664;2023-02-04T06:55:52;6.20;99.90
9907;DHT22;4992;51.628;6.664;2023-02-04T06:58:17;6.20;99.90
9907;DHT22;4992;51.628;6.664;2023-02-04T07:00:43;6.20;99.90
9907;DHT22;4992;51.628;6.664;2023-02-04T07:03:08;6.20;99.90
9907;DHT22;4992;51.628;6.664;2023-02-04T07:05:34;6.10;99.90
9907;DHT22;4992;51.628;6.664;2023-02-04T07:08:00;6.10;99.90
9907;DHT22;4992;51.628;6.664;2023-02-04T07:10:25;6.10;99.90
9907;DHT22;4992;51.628;6.664;2023-02-04T07:12:51;6.10;99.90
9907;DHT22;4992;51.628;6.664;2023-02-04T07:15:16;6.10;99.90
9907;DHT22;4992;51.628;6.664;2023-02-04T07:17:42;6.10;99.90
9907;DHT22;4992;51.628;6.664;2023-02-04T07:20:09;6.10;99.90
9907;DHT22;4992;51.628;6.664;2023-02-04T07:22:34;6.10;99.90
9907;DHT22;4992;51.628;6.664;2023-02-04T07:25:00;6.10;99.90
9907;DHT22;4992;51.628;6.664;2023-02-04T07:27:25;6.10;99.90
9907;DHT22;4992;51.628;6.664;2023-02-04T07:29:51;6.10;99.90
9907;DHT22;4992;51.628;6.664;2023-02-04T07:32:16;6.10;99.90
9907;DHT22;4992;51.628;6.664;2023-02-04T07:34:42;6.10;99.90
9907;DHT22;4992;51.628;6.664;2023-02-04T07:37:07;6.10;99.90
9907;DHT22;4992;51.628;6.664;2023-02-04T07:39:33;6.10;99.90
9907;DHT22;4992;51.628;6.664;2023-02-04T07:41:58;6.10;99.90
9907;DHT22;4992;51.628;6.664;2023-02-04T07:44:24;6.10;99.90
9907;DHT22;4992;51.628;6.664;2023-02-04T07:46:49;6.10;99.90
9907;DHT22;4992;51.628;6.664;2023-02-04T07:49:15;6.10;99.90
9907;DHT22;4992;51.628;6.664;2023-02-04T07:51:40;6.20;99.90
9907;DHT22;4992;51.628;6.664;2023-02-04T07:54:06;6.20;99.90
9907;DHT22;4992;51.628;6.664;2023-02-04T07:56:31;6.20;99.90
9907;DHT22;4992;51.628;6.664;2023-02-04T07:58:57;6.20;99.90
9907;DHT22;4992;51.628;6.664;2023-02-04T08:01:22;6.20;99.90
9907;DHT22;4992;51.628;6.664;2023-02-04T08:03:48;6.30;99.90
9907;DHT22;4992;51.628;6.664;2023-02-04T08:06:14;6.30;99.90
9907;DHT22;4992;51.628;6.664;2023-02-04T08:08:40;6.30;99.90
9907;DHT22;4992;51.628;6.664;2023-02-04T08:11:05;6.30;99.90
9907;DHT22;4992;51.628;6.664;2023-02-04T08:13:31;6.30;99.90
9907;DHT22;4992;51.628;6.664;2023-02-04T08:15:56;6.40;99.90
9907;DHT22;4992;51.628;6.664;2023-02-04T08:18:22;6.40;99.90
9907;DHT22;4992;51.628;6.664;2023-02-04T08:20:49;6.40;99.90
9907;DHT22;4992;51.628;6.664;2023-02-04T08:23:15;6.40;99.90
9907;DHT22;4992;51.628;6.664;2023-02-04T08:25:40;6.50;99.90
9907;DHT22;4992;51.628;6.664;2023-02-04T08:28:06;6.50;99.90
9907;DHT22;4992;51.628;6.664;2023-02-04T08:30:31;6.60;99.90
9907;DHT22;4992;51.628;6.664;2023-02-04T08:32:57;6.60;99.90
9907;DHT22;4992;51.628;6.664;2023-02-04T08:35:22;6.60;99.90
9907;DHT22;4992;51.628;6.664;2023-02-04T08:37:48;6.70;99.90
9907;DHT22;4992;51.628;6.664;2023-02-04T08:40:14;6.70;99.90
9907;DHT22;4992;51.628;6.664;2023-02-04T08:42:39;6.80;99.90
9907;DHT22;4992;51.628;6.664;2023-02-04T08:45:05;6.80;99.90
9907;DHT22;4992;51.628;6.664;2023-02-04T08:47:30;6.80;99.90
9907;DHT22;4992;51.628;6.664;2023-02-04T08:49:56;6.80;99.90
9907;DHT22;4992;51.628;6.664;2023-02-04T08:52:21;6.80;99.90
9907;DHT22;4992;51.628;6.664;2023-02-04T08:54:47;6.90;99.90
9907;DHT22;4992;51.628;6.664;2023-02-04T08:57:12;6.90;99.90
9907;DHT22;4992;51.628;6.664;2023-02-04T08:59:38;7.00;99.90
9907;DHT22;4992;51.628;6.664;2023-02-04T09:02:03;7.00;99.90
9907;DHT22;4992;51.628;6.664;2023-02-04T09:04:29;7.10;99.90
9907;DHT22;4992;51.628;6.664;2023-02-04T09:06:54;7.10;99.90
9907;DHT22;4992;51.628;6.664;2023-02-04T09:09:20;7.20;99.90
9907;DHT22;4992;51.628;6.664;2023-02-04T09:11:46;7.20;99.90
9907;DHT22;4992;51.628;6.664;2023-02-04T09:14:12;7.30;99.90
9907;DHT22;4992;51.628;6.664;2023-02-04T09:16:37;7.30;99.90
9907;DHT22;4992;51.628;6.664;2023-02-04T09:19:03;7.40;99.90
9907;DHT22;4992;51.628;6.664;2023-02-04T09:21:29;7.40;99.90
9907;DHT22;4992;51.628;6.664;2023-02-04T09:23:54;7.40;99.90
9907;DHT22;4992;51.628;6.664;2023-02-04T09:26:20;7.50;99.90
9907;DHT22;4992;51.628;6.664;2023-02-04T09:28:46;7.50;99.90
9907;DHT22;4992;51.628;6.664;2023-02-04T09:31:13;7.60;99.90
9907;DHT22;4992;51.628;6.664;2023-02-04T09:33:38;7.70;99.90
9907;DHT22;4992;51.628;6.664;2023-02-04T09:36:04;7.70;99.90
9907;DHT22;4992;51.628;6.664;2023-02-04T09:38:30;7.70;99.90
9907;DHT22;4992;51.628;6.664;2023-02-04T09:41:06;7.80;99.90
9907;DHT22;4992;51.628;6.664;2023-02-04T09:43:38;7.80;99.90
9907;DHT22;4992;51.628;6.664;2023-02-04T09:46:09;7.90;99.90
9907;DHT22;4992;51.628;6.664;2023-02-04T09:48:40;7.90;99.90
9907;DHT22;4992;51.628;6.664;2023-02-04T09:51:06;7.90;99.90
9907;DHT22;4992;51.628;6.664;2023-02-04T09:53:33;8.00;99.90
9907;DHT22;4992;51.628;6.664;2023-02-04T09:55:59;8.00;99.90
9907;DHT22;4992;51.628;6.664;2023-02-04T09:58:30;8.10;99.90
9907;DHT22;4992;51.628;6.664;2023-02-04T10:01:14;8.10;99.90
9907;DHT22;4992;51.628;6.664;2023-02-04T10:03:41;8.30;99.90
9907;DHT22;4992;51.628;6.664;2023-02-04T10:06:15;8.40;99.90
9907;DHT22;4992;51.628;6.664;2023-02-04T10:08:41;8.50;99.90
9907;DHT22;4992;51.628;6.664;2023-02-04T10:11:08;8.60;99.90
9907;DHT22;4992;51.628;6.664;2023-02-04T10:13:36;8.60;99.90
9907;DHT22;4992;51.628;6.664;2023-02-04T10:16:12;8.70;99.90
9907;DHT22;4992;51.628;6.664;2023-02-04T10:18:38;8.70;99.90
9907;DHT22;4992;51.628;6.664;2023-02-04T10:21:14;8.80;99.90
9907;DHT22;4992;51.628;6.664;2023-02-04T10:23:42;8.80;99.90
9907;DHT22;4992;51.628;6.664;2023-02-04T10:26:12;8.90;99.90
9907;DHT22;4992;51.628;6.664;2023-02-04T10:28:38;9.00;99.90
9907;DHT22;4992;51.628;6.664;2023-02-04T10:31:27;9.00;99.90
9907;DHT22;4992;51.628;6.664;2023-02-04T10:36:29;9.00;99.90
9907;DHT22;4992;51.628;6.664;2023-02-04T10:39:04;9.00;99.90
9907;DHT22;4992;51.628;6.664;2023-02-04T10:41:31;9.10;99.90
9907;DHT22;4992;51.628;6.664;2023-02-04T10:44:08;9.10;99.90
9907;DHT22;4992;51.628;6.664;2023-02-04T10:46:34;9.20;99.90
9907;DHT22;4992;51.628;6.664;2023-02-04T10:49:03;9.30;99.90
9907;DHT22;4992;51.628;6.664;2023-02-04T10:51:29;9.40;99.90
9907;DHT22;4992;51.628;6.664;2023-02-04T10:53:54;9.50;99.90
9907;DHT22;4992;51.628;6.664;2023-02-04T10:56:38;9.50;99.90
9907;DHT22;4992;51.628;6.664;2023-02-04T10:59:04;9.50;99.90
9907;DHT22;4992;51.628;6.664;2023-02-04T11:01:31;9.40;99.90
9907;DHT22;4992;51.628;6.664;2023-02-04T11:03:57;9.40;99.90
9907;DHT22;4992;51.628;6.664;2023-02-04T11:06:23;9.30;99.90
9907;DHT22;4992;51.628;6.664;2023-02-04T11:08:50;9.40;99.90
9907;DHT22;4992;51.628;6.664;2023-02-04T11:11:20;9.40;99.90
9907;DHT22;4992;51.628;6.664;2023-02-04T11:16:25;9.70;99.90
9907;DHT22;4992;51.628;6.664;2023-02-04T11:18:59;9.80;99.90
9907;DHT22;4992;51.628;6.664;2023-02-04T11:21:40;9.90;99.90
9907;DHT22;4992;51.628;6.664;2023-02-04T11:29:07;9.90;99.90
9907;DHT22;4992;51.628;6.664;2023-02-04T11:34:23;9.70;99.90
9907;DHT22;4992;51.628;6.664;2023-02-04T11:39:35;9.70;99.90
9907;DHT22;4992;51.628;6.664;2023-02-04T11:42:02;9.80;99.90
9907;DHT22;4992;51.628;6.664;2023-02-04T11:44:28;9.80;99.90
9907;DHT22;4992;51.628;6.664;2023-02-04T11:46:55;9.90;99.90
9907;DHT22;4992;51.628;6.664;2023-02-04T11:49:22;9.90;99.90
9907;DHT22;4992;51.628;6.664;2023-02-04T11:51:49;10.00;99.90
9907;DHT22;4992;51.628;6.664;2023-02-04T11:54:16;10.20;99.90
9907;DHT22;4992;51.628;6.664;2023-02-04T11:56:51;10.30;99.90
9907;DHT22;4992;51.628;6.664;2023-02-04T11:59:17;10.40;99.90
9907;DHT22;4992;51.628;6.664;2023-02-04T12:01:45;10.50;99.90
9907;DHT22;4992;51.628;6.664;2023-02-04T12:04:23;10.70;99.90
9907;DHT22;4992;51.628;6.664;2023-02-04T12:06:57;10.80;99.90
9907;DHT22;4992;51.628;6.664;2023-02-04T12:09:25;10.90;99.90
9907;DHT22;4992;51.628;6.664;2023-02-04T12:11:52;11.10;99.90
9907;DHT22;4992;51.628;6.664;2023-02-04T12:14:18;11.50;99.90
9907;DHT22;4992;51.628;6.664;2023-02-04T12:16:49;11.80;99.90
9907;DHT22;4992;51.628;6.664;2023-02-04T12:19:17;12.10;99.90
9907;DHT22;4992;51.628;6.664;2023-02-04T12:21:43;12.30;99.90
9907;DHT22;4992;51.628;6.664;2023-02-04T12:24:09;12.40;99.90
9907;DHT22;4992;51.628;6.664;2023-02-04T12:26:34;12.50;99.90
9907;DHT22;4992;51.628;6.664;2023-02-04T12:29:00;12.70;99.90
9907;DHT22;4992;51.628;6.664;2023-02-04T12:31:28;13.00;99.90
9907;DHT22;4992;51.628;6.664;2023-02-04T12:33:54;13.20;99.90
9907;DHT22;4992;51.628;6.664;2023-02-04T12:36:19;13.10;99.90
9907;DHT22;4992;51.628;6.664;2023-02-04T12:38:45;12.80;99.90
9907;DHT22;4992;51.628;6.664;2023-02-04T12:41:11;12.70;99.90
9907;DHT22;4992;51.628;6.664;2023-02-04T12:43:36;12.40;99.90
9907;DHT22;4992;51.628;6.664;2023-02-04T12:46:02;12.10;99.90
9907;DHT22;4992;51.628;6.664;2023-02-04T12:48:28;11.90;99.90
9907;DHT22;4992;51.628;6.664;2023-02-04T12:50:53;11.80;99.90
9907;DHT22;4992;51.628;6.664;2023-02-04T12:53:19;11.90;99.90
9907;DHT22;4992;51.628;6.664;2023-02-04T12:55:44;12.00;99.90
9907;DHT22;4992;51.628;6.664;2023-02-04T12:58:10;12.30;99.90
9907;DHT22;4992;51.628;6.664;2023-02-04T13:00:36;12.60;99.90
9907;DHT22;4992;51.628;6.664;2023-02-04T13:03:01;13.10;99.90
9907;DHT22;4992;51.628;6.664;2023-02-04T13:05:27;13.50;99.90
9907;DHT22;4992;51.628;6.664;2023-02-04T13:07:53;13.80;99.90
9907;DHT22;4992;51.628;6.664;2023-02-04T13:10:19;14.00;99.90
9907;DHT22;4992;51.628;6.664;2023-02-04T13:12:46;14.30;99.90
9907;DHT22;4992;51.628;6.664;2023-02-04T13:15:12;14.80;99.90
9907;DHT22;4992;51.628;6.664;2023-02-04T13:17:37;15.10;99.90
9907;DHT22;4992;51.628;6.664;2023-02-04T13:20:03;15.10;99.90
9907;DHT22;4992;51.628;6.664;2023-02-04T13:22:29;15.40;99.90
9907;DHT22;4992;51.628;6.664;2023-02-04T13:24:55;15.70;99.90
9907;DHT22;4992;51.628;6.664;2023-02-04T13:27:20;16.00;99.90
9907;DHT22;4992;51.628;6.664;2023-02-04T13:29:46;15.90;99.90
9907;DHT22;4992;51.628;6.664;2023-02-04T13:32:11;15.70;99.90
9907;DHT22;4992;51.628;6.664;2023-02-04T13:34:37;15.40;99.90
9907;DHT22;4992;51.628;6.664;2023-02-04T13:37:02;15.20;99.90
9907;DHT22;4992;51.628;6.664;2023-02-04T13:39:28;15.00;99.90
9907;DHT22;4992;51.628;6.664;2023-02-04T13:41:54;14.80;99.90
9907;DHT22;4992;51.628;6.664;2023-02-04T13:44:19;14.30;99.90
9907;DHT22;4992;51.628;6.664;2023-02-04T13:46:45;13.70;99.90
9907;DHT22;4992;51.628;6.664;2023-02-04T13:49:10;13.40;99.90
9907;DHT22;4992;51.628;6.664;2023-02-04T13:51:36;13.20;99.90
9907;DHT22;4992;51.628;6.664;2023-02-04T13:54:02;12.80;99.90
9907;DHT22;4992;51.628;6.664;2023-02-04T13:56:27;12.50;99.90
9907;DHT22;4992;51.628;6.664;2023-02-04T13:58:53;12.20;99.90
9907;DHT22;4992;51.628;6.664;2023-02-04T14:01:19;12.00;99.90
9907;DHT22;4992;51.628;6.664;2023-02-04T14:03:44;12.00;99.90
9907;DHT22;4992;51.628;6.664;2023-02-04T14:06:11;12.10;99.90
9907;DHT22;4992;51.628;6.664;2023-02-04T14:08:36;12.10;99.90
9907;DHT22;4992;51.628;6.664;2023-02-04T14:11:02;12.20;99.90
9907;DHT22;4992;51.628;6.664;2023-02-04T14:13:28;12.50;99.90
9907;DHT22;4992;51.628;6.664;2023-02-04T14:15:53;12.90;99.90
9907;DHT22;4992;51.628;6.664;2023-02-04T14:18:19;13.30;99.90
9907;DHT22;4992;51.628;6.664;2023-02-04T14:20:45;13.70;99.90
9907;DHT22;4992;51.628;6.664;2023-02-04T14:23:11;14.00;99.90
9907;DHT22;4992;51.628;6.664;2023-02-04T14:25:37;14.00;99.90
9907;DHT22;4992;51.628;6.664;2023-02-04T14:28:03;13.90;99.90
9907;DHT22;4992;51.628;6.664;2023-02-04T14:30:29;13.80;99.90
9907;DHT22;4992;51.628;6.664;2023-02-04T14:32:56;13.60;99.90
9907;DHT22;4992;51.628;6.664;2023-02-04T14:35:22;13.40;99.90
9907;DHT22;4992;51.628;6.664;2023-02-04T14:37:48;13.20;99.90
9907;DHT22;4992;51.628;6.664;2023-02-04T14:40:15;13.30;99.90
9907;DHT22;4992;51.628;6.664;2023-02-04T14:42:40;13.70;99.90
9907;DHT22;4992;51.628;6.664;2023-02-04T14:45:08;13.90;99.90
9907;DHT22;4992;51.628;6.664;2023-02-04T14:47:34;13.70;99.90
9907;DHT22;4992;51.628;6.664;2023-02-04T14:50:00;13.60;99.90
9907;DHT22;4992;51.628;6.664;2023-02-04T14:52:25;13.50;99.90
9907;DHT22;4992;51.628;6.664;2023-02-04T14:54:51;14.00;99.90
9907;DHT22;4992;51.628;6.664;2023-02-04T14:57:17;14.20;99.90
9907;DHT22;4992;51.628;6.664;2023-02-04T14:59:42;14.10;99.90
9907;DHT22;4992;51.628;6.664;2023-02-04T15:02:08;13.80;99.90
9907;DHT22;4992;51.628;6.664;2023-02-04T15:04:34;13.50;99.90
9907;DHT22;4992;51.628;6.664;2023-02-04T15:07:00;13.40;99.90
9907;DHT22;4992;51.628;6.664;2023-02-04T15:09:26;13.20;99.90
9907;DHT22;4992;51.628;6.664;2023-02-04T15:11:52;12.80;99.90
9907;DHT22;4992;51.628;6.664;2023-02-04T15:14:18;12.50;99.90
9907;DHT22;4992;51.628;6.664;2023-02-04T15:16:43;12.40;99.90
9907;DHT22;4992;51.628;6.664;2023-02-04T15:19:12;12.30;99.90
9907;DHT22;4992;51.628;6.664;2023-02-04T15:21:38;12.20;99.90
9907;DHT22;4992;51.628;6.664;2023-02-04T15:24:03;12.10;99.90
9907;DHT22;4992;51.628;6.664;2023-02-04T15:26:29;11.90;99.90
9907;DHT22;4992;51.628;6.664;2023-02-04T15:28:55;11.70;99.90
9907;DHT22;4992;51.628;6.664;2023-02-04T15:31:21;11.40;99.90
9907;DHT22;4992;51.628;6.664;2023-02-04T15:33:47;11.10;99.90
9907;DHT22;4992;51.628;6.664;2023-02-04T15:36:12;10.90;99.90
9907;DHT22;4992;51.628;6.664;2023-02-04T15:38:38;10.70;99.90
9907;DHT22;4992;51.628;6.664;2023-02-04T15:41:03;10.60;99.90
9907;DHT22;4992;51.628;6.664;2023-02-04T15:43:29;10.40;99.90
9907;DHT22;4992;51.628;6.664;2023-02-04T15:45:55;10.20;99.90
9907;DHT22;4992;51.628;6.664;2023-02-04T15:48:21;10.00;99.90
9907;DHT22;4992;51.628;6.664;2023-02-04T15:50:48;9.80;99.90
9907;DHT22;4992;51.628;6.664;2023-02-04T15:53:14;9.60;99.90
9907;DHT22;4992;51.628;6.664;2023-02-04T15:55:40;9.40;99.90
9907;DHT22;4992;51.628;6.664;2023-02-04T15:58:05;9.30;99.90
9907;DHT22;4992;51.628;6.664;2023-02-04T16:00:31;9.20;99.90
9907;DHT22;4992;51.628;6.664;2023-02-04T16:02:56;9.10;99.90
9907;DHT22;4992;51.628;6.664;2023-02-04T16:05:22;9.00;99.90
9907;DHT22;4992;51.628;6.664;2023-02-04T16:07:47;8.80;99.90
9907;DHT22;4992;51.628;6.664;2023-02-04T16:10:13;8.70;99.90
9907;DHT22;4992;51.628;6.664;2023-02-04T16:12:39;8.60;99.90
9907;DHT22;4992;51.628;6.664;2023-02-04T16:15:05;8.50;99.90
9907;DHT22;4992;51.628;6.664;2023-02-04T16:17:30;8.40;99.90
9907;DHT22;4992;51.628;6.664;2023-02-04T16:19:56;8.20;99.90
9907;DHT22;4992;51.628;6.664;2023-02-04T16:22:22;8.10;99.90
9907;DHT22;4992;51.628;6.664;2023-02-04T16:24:47;7.90;99.90
9907;DHT22;4992;51.628;6.664;2023-02-04T16:27:14;7.80;99.90
9907;DHT22;4992;51.628;6.664;2023-02-04T16:29:41;7.70;99.90
9907;DHT22;4992;51.628;6.664;2023-02-04T16:32:07;7.60;99.90